Time;durP1;ratioP1;P1;durP2;ratioP2;P2;SDS_P1;SDS_P2;PMS_P1;PMS_P2;Temp;Humidity;BMP_temperature;BMP_pressure;BME280_temperature;BME280_humidity;BME280_pressure;Samples;Min_cycle;Max_cycle;Signal;HPM_P1;HPM_P2
2023/04/27 00:00:40;;;;;;;4.63;3.10;;;;;;;7.52;57.04;95631.97;4947822;28;20199;-81
2023/04/27 00:03:06;;;;;;;7.03;2.60;;;;;;;7.51;57.16;95625.16;4970020;28;20270;-82
2023/04/27 00:05:41;;;;;;;4.87;3.03;;;;;;;7.54;56.80;95622.34;4950024;28;20555;-81
2023/04/27 00:08:18;;;;;;;4.60;2.77;;;;;;;7.48;57.22;95625.41;4957717;28;20195;-83
2023/04/27 00:10:43;;;;;;;3.97;2.93;;;;;;;7.48;57.16;95628.00;4956898;28;20254;-82
2023/04/27 00:13:20;;;;;;;7.77;3.93;;;;;;;7.42;56.96;95626.75;4964603;28;20196;-83
2023/04/27 00:16:02;;;;;;;4.77;2.77;;;;;;;7.44;56.37;95616.28;4959102;28;20219;-81
2023/04/27 00:18:46;;;;;;;8.30;2.87;;;;;;;7.45;56.65;95615.34;4964663;28;20571;-81
2023/04/27 00:21:16;;;;;;;7.80;3.20;;;;;;;7.41;56.68;95619.09;4967467;28;20204;-82
2023/04/27 00:23:53;;;;;;;3.93;2.83;;;;;;;7.49;56.67;95612.38;4973775;28;20212;-83
2023/04/27 00:26:22;;;;;;;6.07;2.90;;;;;;;7.42;56.12;95615.56;4953957;28;20199;-82
2023/04/27 00:28:47;;;;;;;5.30;2.87;;;;;;;7.38;56.62;95605.50;4958182;28;20235;-82
2023/04/27 00:31:18;;;;;;;4.70;2.80;;;;;;;7.39;56.15;95606.31;4943662;28;20188;-83
2023/04/27 00:33:47;;;;;;;7.47;3.00;;;;;;;7.42;56.28;95595.75;4954026;28;20212;-82
2023/04/27 00:36:17;;;;;;;3.63;2.97;;;;;;;7.54;56.06;95605.06;4974804;28;20184;-82
2023/04/27 00:38:45;;;;;;;9.50;3.20;;;;;;;7.52;56.06;95598.41;4948674;28;20220;-82
2023/04/27 00:41:11;;;;;;;5.73;2.83;;;;;;;7.52;56.10;95590.63;4957724;28;20230;-82
2023/04/27 00:43:48;;;;;;;5.10;2.70;;;;;;;7.50;56.15;95595.91;4972591;28;20216;-81
2023/04/27 00:46:18;;;;;;;6.10;3.03;;;;;;;7.47;56.35;95593.59;4956706;28;20211;-81
2023/04/27 00:48:47;;;;;;;4.53;3.00;;;;;;;7.45;56.28;95589.50;4971624;28;20219;-81
2023/04/27 00:51:16;;;;;;;3.20;2.83;;;;;;;7.41;56.43;95594.09;4973787;28;20184;-82
2023/04/27 00:53:47;;;;;;;7.63;2.87;;;;;;;7.38;56.62;95590.00;4958996;28;20204;-82
2023/04/27 00:56:22;;;;;;;3.33;2.90;;;;;;;7.34;57.33;95593.81;4971830;28;20243;-83
2023/04/27 00:59:02;;;;;;;6.73;2.70;;;;;;;7.19;58.28;95600.22;4953070;28;20234;-83
2023/04/27 01:01:36;;;;;;;6.27;2.77;;;;;;;7.11;58.57;95607.78;4974310;28;20199;-83
2023/04/27 01:04:18;;;;;;;4.90;2.73;;;;;;;7.08;59.15;95595.94;4957750;28;20237;-83
2023/04/27 01:06:54;;;;;;;6.17;2.70;;;;;;;6.99;59.67;95604.44;4969575;28;20263;-82
2023/04/27 01:09:20;;;;;;;5.37;3.03;;;;;;;6.99;59.60;95601.84;4975345;28;20290;-83
2023/04/27 01:11:48;;;;;;;6.80;2.93;;;;;;;6.95;60.19;95604.78;4960984;28;20224;-82
2023/04/27 01:14:16;;;;;;;5.40;2.80;;;;;;;6.81;60.65;95605.91;4971141;28;20582;-82
2023/04/27 01:16:45;;;;;;;6.47;2.67;;;;;;;6.78;60.70;95600.97;4958434;28;20661;-83
2023/04/27 01:19:15;;;;;;;5.03;2.83;;;;;;;6.75;61.18;95606.41;4950009;28;20259;-83
2023/04/27 01:21:43;;;;;;;4.10;3.00;;;;;;;6.69;61.82;95612.84;4963206;28;20227;-82
2023/04/27 01:24:11;;;;;;;4.77;2.70;;;;;;;6.78;61.60;95604.38;4967733;28;20239;-83
2023/04/27 01:26:37;;;;;;;3.33;2.80;;;;;;;6.85;60.95;95598.72;4955902;28;20279;-81
2023/04/27 01:29:10;;;;;;;5.50;2.93;;;;;;;6.85;60.62;95602.13;4953379;28;20311;-82
2023/04/27 01:31:39;;;;;;;7.13;3.50;;;;;;;6.87;59.91;95600.25;4975083;28;20658;-82
2023/04/27 01:34:13;;;;;;;5.13;2.67;;;;;;;6.90;59.80;95605.19;4946298;28;20191;-83
2023/04/27 01:36:48;;;;;;;6.03;2.70;;;;;;;6.87;60.02;95600.25;4966135;28;20188;-84
2023/04/27 01:39:24;;;;;;;5.83;2.77;;;;;;;6.86;60.41;95603.75;4952770;28;20711;-83
2023/04/27 01:42:14;;;;;;;6.37;3.00;;;;;;;6.88;60.16;95596.72;4971498;28;20199;-84
2023/04/27 01:44:54;;;;;;;3.77;2.47;;;;;;;6.84;60.31;95600.50;4976350;28;20207;-83
2023/04/27 01:48:01;;;;;;;3.27;2.97;;;;;;;6.91;60.31;95595.66;4955797;28;20183;-83
2023/04/27 01:50:34;;;;;;;8.27;3.00;;;;;;;6.83;60.59;95604.03;4969857;28;20203;-82
2023/04/27 01:53:42;;;;;;;7.07;3.13;;;;;;;6.74;60.89;95600.41;4965259;28;20192;-84
2023/04/27 01:56:26;;;;;;;;;;;;;;;;;;;;;
2023/04/27 01:59:14;;;;;;;7.53;3.37;;;;;;;6.74;60.91;95602.19;4917487;29;20217;-82
2023/04/27 02:01:47;;;;;;;8.90;2.80;;;;;;;6.70;60.77;95609.31;4915020;29;20190;-83
2023/04/27 02:04:23;;;;;;;6.10;2.90;;;;;;;6.82;60.98;95604.97;4905746;29;20286;-84
2023/04/27 02:09:57;;;;;;;4.33;3.27;;;;;;;6.71;61.07;95612.72;4891964;29;20230;-83
2023/04/27 02:12:40;;;;;;;3.60;3.03;;;;;;;6.73;61.08;95608.28;4902943;29;20205;-83
2023/04/27 02:15:16;;;;;;;4.80;2.93;;;;;;;6.68;61.34;95606.06;4894908;29;20216;-83
2023/04/27 02:17:58;;;;;;;5.30;2.97;;;;;;;6.71;61.31;95608.38;4911482;29;20308;-81
2023/04/27 02:20:36;;;;;;;8.67;2.80;;;;;;;6.70;61.34;95614.50;4904429;29;20392;-84
2023/04/27 02:23:01;;;;;;;5.57;2.87;;;;;;;6.76;61.06;95614.00;4922269;29;20190;-84
2023/04/27 02:25:32;;;;;;;6.23;2.77;;;;;;;6.74;61.23;95615.09;4905514;29;20574;-84
2023/04/27 02:28:00;;;;;;;4.50;2.90;;;;;;;6.70;61.46;95617.06;4915332;29;20209;-82
2023/04/27 02:30:29;;;;;;;6.13;2.63;;;;;;;6.61;61.81;95607.47;4931270;29;20193;-83
2023/04/27 02:33:00;;;;;;;6.90;2.77;;;;;;;6.68;61.57;95615.56;4937223;29;20209;-83
2023/04/27 02:35:52;;;;;;;5.17;2.63;;;;;;;6.66;61.69;95614.88;4921465;29;20186;-82
2023/04/27 02:38:41;;;;;;;4.47;2.73;;;;;;;6.76;62.00;95618.34;4919177;29;20277;-82
2023/04/27 02:41:12;;;;;;;5.23;2.93;;;;;;;6.67;61.53;95619.91;4946078;28;20197;-84
2023/04/27 02:43:38;;;;;;;3.03;2.70;;;;;;;6.69;61.36;95623.19;4886116;29;20300;-85
2023/04/27 02:46:26;;;;;;;6.37;2.90;;;;;;;6.71;61.03;95620.47;4952847;28;20650;-85
2023/04/27 02:49:03;;;;;;;7.87;2.87;;;;;;;6.76;61.26;95618.34;4959556;28;20215;-83
2023/04/27 02:51:34;;;;;;;6.27;2.97;;;;;;;6.84;60.38;95615.97;4964431;28;20259;-84
2023/04/27 02:54:10;;;;;;;5.77;2.90;;;;;;;6.87;60.09;95613.16;4976023;28;20707;-84
2023/04/27 02:56:35;;;;;;;5.50;2.93;;;;;;;6.87;60.37;95613.16;4957274;28;20233;-84
2023/04/27 02:59:06;;;;;;;3.23;2.40;;;;;;;6.84;60.51;95617.75;4965744;28;20295;-82
2023/04/27 03:01:35;;;;;;;3.83;2.70;;;;;;;6.82;60.64;95617.88;4959083;28;20184;-84
2023/04/27 03:04:03;;;;;;;4.97;2.93;;;;;;;6.84;60.36;95615.16;4959786;28;20291;-84
2023/04/27 03:06:36;;;;;;;6.13;2.50;;;;;;;6.85;60.14;95614.22;4981898;28;20218;-84
2023/04/27 03:09:05;;;;;;;6.93;2.80;;;;;;;6.89;60.38;95613.88;4990446;28;20274;-83
2023/04/27 03:11:41;;;;;;;4.17;2.47;;;;;;;6.90;59.92;95610.34;4950211;28;20621;-84
2023/04/27 03:14:12;;;;;;;2.87;2.50;;;;;;;6.94;59.71;95609.13;4976430;28;20191;-82
2023/04/27 03:16:43;;;;;;;4.33;2.70;;;;;;;6.96;59.70;95616.75;4959727;28;20195;-83
2023/04/27 03:19:37;;;;;;;6.10;2.77;;;;;;;6.93;59.87;95623.00;4945766;28;20212;-84
2023/04/27 03:22:06;;;;;;;6.47;2.93;;;;;;;7.07;58.79;95622.72;4977684;28;20204;-83
2023/04/27 03:24:45;;;;;;;5.00;2.43;;;;;;;7.00;59.03;95621.56;4959523;28;20243;-84
2023/04/27 03:27:19;;;;;;;5.07;2.80;;;;;;;6.91;59.75;95616.31;4958759;28;20184;-83
2023/04/27 03:29:57;;;;;;;5.37;3.17;;;;;;;6.99;59.28;95616.53;4975748;28;20187;-82
2023/04/27 03:32:23;;;;;;;4.57;2.67;;;;;;;7.13;59.67;95629.13;4960298;28;20735;-82
2023/04/27 03:35:02;;;;;;;5.57;2.60;;;;;;;7.15;59.53;95629.00;4956822;28;20184;-82
2023/04/27 03:37:31;;;;;;;9.30;3.30;;;;;;;7.08;59.59;95621.75;4964327;28;20690;-81
2023/04/27 03:40:06;;;;;;;5.63;3.00;;;;;;;7.08;59.57;95626.09;4947781;28;20187;-83
2023/04/27 03:42:34;;;;;;;4.60;2.80;;;;;;;7.21;59.20;95620.75;4955362;28;20184;-83
2023/04/27 03:45:00;;;;;;;5.50;3.30;;;;;;;7.08;59.74;95614.00;4959430;28;20851;-83
2023/04/27 03:47:25;;;;;;;6.43;3.13;;;;;;;7.13;59.86;95623.13;4957196;28;20181;-82
2023/04/27 03:49:53;;;;;;;5.73;3.47;;;;;;;7.12;60.01;95622.31;4974749;28;20188;-82
2023/04/27 03:52:21;;;;;;;6.37;3.17;;;;;;;7.15;59.57;95622.06;4956657;28;20220;-84
2023/04/27 03:54:49;;;;;;;6.47;3.47;;;;;;;7.03;60.07;95616.13;4957046;28;20678;-83
2023/04/27 03:57:17;;;;;;;8.37;3.00;;;;;;;7.11;59.72;95620.69;4969947;28;20362;-82
2023/04/27 03:59:51;;;;;;;6.03;3.37;;;;;;;7.12;59.98;95616.34;4952297;28;20649;-82
2023/04/27 04:02:20;;;;;;;4.67;2.93;;;;;;;7.19;59.72;95614.91;4958761;28;20234;-82
2023/04/27 04:04:48;;;;;;;9.97;2.83;;;;;;;7.20;59.55;95611.38;4957365;28;20195;-81
2023/04/27 04:07:14;;;;;;;5.10;3.20;;;;;;;7.28;59.56;95614.16;4953112;28;20238;-83
2023/04/27 04:09:49;;;;;;;;;;;;;;;;;;;;;
2023/04/27 04:12:18;;;;;;;6.67;2.90;;;;;;;7.05;60.25;95616.81;4975109;28;20188;-82
2023/04/27 04:15:03;;;;;;;6.07;2.80;;;;;;;7.16;59.86;95628.06;4957438;28;20192;-83
2023/04/27 04:17:34;;;;;;;4.87;3.47;;;;;;;7.10;60.34;95627.63;4974029;28;20706;-80
2023/04/27 04:20:14;;;;;;;5.53;3.10;;;;;;;7.07;60.46;95632.22;4956585;28;20200;-83
2023/04/27 04:22:49;;;;;;;5.47;3.10;;;;;;;7.01;60.12;95620.63;4943440;28;20183;-84
2023/04/27 04:25:48;;;;;;;5.90;3.20;;;;;;;6.98;60.60;95628.63;4957616;28;20557;-84
2023/04/27 04:28:31;;;;;;;7.20;2.70;;;;;;;7.19;60.52;95627.81;4931359;29;20210;-85
2023/04/27 04:31:08;;;;;;;4.43;2.90;;;;;;;7.12;60.35;95632.66;4899054;29;20199;-84
2023/04/27 04:33:33;;;;;;;4.77;2.97;;;;;;;7.01;60.31;95628.34;4904170;29;20257;-82
2023/04/27 04:36:05;;;;;;;6.47;3.00;;;;;;;7.14;60.28;95628.16;4918847;29;20775;-83
2023/04/27 04:39:00;;;;;;;4.17;2.90;;;;;;;7.25;60.28;95630.72;4934796;29;20312;-80
2023/04/27 04:41:28;;;;;;;4.87;3.03;;;;;;;7.37;59.76;95626.31;4902096;29;20205;-79
2023/04/27 04:44:12;;;;;;;10.03;3.27;;;;;;;7.29;60.18;95628.69;4917877;29;20202;-80
2023/04/27 04:47:25;;;;;;;4.53;2.83;;;;;;;7.46;59.56;95633.31;4911196;29;20198;-79
2023/04/27 04:54:01;;;;;;;5.10;3.10;;;;;;;7.51;59.93;95635.50;4802296;29;20646;-79
2023/04/27 05:07:18;;;;;;;6.77;3.00;;;;;;;7.88;57.87;95622.94;4786367;29;20323;-80
2023/04/27 05:23:14;;;;;;;3.13;2.47;;;;;;;8.39;55.21;95641.00;4947233;29;20219;-81
2023/04/27 05:25:42;;;;;;;4.80;2.83;;;;;;;8.38;54.85;95641.09;4918776;29;20578;-80
2023/04/27 06:03:43;;;;;;;5.37;2.80;;;;;;;9.75;52.43;95682.53;5016744;23;20345;-85
2023/04/27 06:06:08;;;;;;;6.70;3.03;;;;;;;9.82;52.43;95678.41;4968219;28;20224;-82
2023/04/27 06:08:36;;;;;;;3.23;2.93;;;;;;;9.91;52.36;95681.00;4964463;28;20231;-81
2023/04/27 06:11:04;;;;;;;6.83;2.70;;;;;;;10.00;51.61;95686.28;4977896;28;20191;-82
2023/04/27 06:13:33;;;;;;;7.23;2.70;;;;;;;10.04;52.31;95687.63;4962876;28;20278;-82
2023/04/27 06:16:07;;;;;;;5.67;2.97;;;;;;;10.13;52.73;95689.38;4959150;28;20191;-82
2023/04/27 06:18:38;;;;;;;4.03;3.13;;;;;;;10.08;53.94;95691.59;4958179;28;20459;-82
2023/04/27 06:21:04;;;;;;;5.57;2.87;;;;;;;10.17;54.10;95701.94;4959531;28;20223;-82
2023/04/27 06:23:29;;;;;;;4.87;2.93;;;;;;;10.45;54.17;95699.44;4969039;28;20654;-81
2023/04/27 06:25:55;;;;;;;4.90;2.80;;;;;;;10.59;53.89;95700.72;4957598;28;20237;-82
2023/04/27 06:28:20;;;;;;;4.43;2.60;;;;;;;10.84;53.59;95694.84;4976652;28;20222;-82
2023/04/27 06:30:46;;;;;;;6.20;2.80;;;;;;;11.03;53.62;95697.31;4958800;28;20646;-81
2023/04/27 06:33:12;;;;;;;4.70;2.87;;;;;;;11.18;52.42;95697.66;4949729;28;20626;-81
2023/04/27 06:35:37;;;;;;;4.43;2.90;;;;;;;11.38;52.09;95708.72;4952980;28;20291;-82
2023/04/27 06:38:03;;;;;;;4.73;2.63;;;;;;;11.38;51.72;95702.69;4953299;28;20326;-82
2023/04/27 06:40:28;;;;;;;4.23;3.00;;;;;;;11.51;51.60;95705.75;4975826;28;20191;-82
2023/04/27 06:42:54;;;;;;;2.93;2.37;;;;;;;14.30;44.81;95708.22;4966657;28;20223;-81
2023/04/27 06:45:19;;;;;;;7.03;3.30;;;;;;;15.95;40.51;95705.47;4976117;28;20192;-80
2023/04/27 06:47:56;;;;;;;3.63;2.97;;;;;;;17.02;36.58;95711.25;4956313;28;20737;-82
2023/04/27 06:50:47;;;;;;;6.07;2.60;;;;;;;18.51;32.09;95714.88;4959737;28;20246;-81
2023/04/27 06:53:20;;;;;;;3.95;2.63;;;;;;;18.35;31.58;95714.16;4975834;28;20208;-82
2023/04/27 06:55:52;;;;;;;4.97;2.50;;;;;;;19.20;30.63;95709.59;4959183;28;20240;-82
2023/04/27 07:15:15;;;;;;;4.07;2.83;;;;;;;17.17;34.39;95721.72;4898318;29;20222;-84
2023/04/27 07:21:10;;;;;;;6.20;2.78;;;;;;;17.51;32.38;95719.28;4844087;29;20211;-85
2023/04/27 07:23:41;;;;;;;5.05;3.05;;;;;;;16.71;32.87;95719.34;4845546;29;20201;-84
2023/04/27 07:26:07;;;;;;;5.60;3.03;;;;;;;16.86;32.62;95717.50;4832288;29;20208;-83
2023/04/27 07:28:41;;;;;;;5.55;3.60;;;;;;;15.90;33.46;95722.69;4843582;29;20959;-83
2023/04/27 07:31:06;;;;;;;8.15;4.55;;;;;;;15.75;34.59;95715.63;4844847;29;20703;-83
2023/04/27 07:33:32;;;;;;;7.70;4.05;;;;;;;15.74;35.90;95724.47;4847978;29;20234;-82
2023/04/27 07:36:14;;;;;;;7.45;3.92;;;;;;;15.92;36.96;95720.72;4846973;29;20284;-83
2023/04/27 07:38:40;;;;;;;6.43;4.40;;;;;;;16.14;37.36;95722.47;4829605;29;20232;-84
2023/04/27 07:41:06;;;;;;;6.40;3.00;;;;;;;16.48;36.00;95711.50;4844472;29;20193;-83
2023/04/27 07:46:53;;;;;;;7.15;3.42;;;;;;;15.89;37.63;95714.00;4845744;29;20232;-82
2023/04/27 07:50:36;;;;;;;5.93;2.95;;;;;;;15.92;36.86;95713.69;4853462;29;20242;-82
2023/04/27 07:53:25;;;;;;;8.63;3.20;;;;;;;15.30;38.70;95711.16;4843642;29;20193;-84
2023/04/27 07:55:57;;;;;;;5.88;3.55;;;;;;;15.21;38.87;95706.94;4829034;29;20228;-82
2023/04/27 08:02:30;;;;;;;;;;;;;;;;;;;;;
2023/04/27 08:05:16;;;;;;;7.13;3.03;;;;;;;15.05;37.97;95707.03;4852114;29;20188;-83
2023/04/27 08:07:46;;;;;;;4.37;3.00;;;;;;;14.40;37.69;95714.09;4834285;29;20214;-82
2023/04/27 08:13:49;;;;;;;3.83;2.87;;;;;;;14.42;38.90;95712.13;4855575;29;20212;-82
2023/04/27 08:35:46;;;;;;;;;;;;;;;;;;;;;
2023/04/27 08:38:29;;;;;;;5.83;3.33;;;;;;;14.97;39.10;95694.81;4975500;28;20277;-83
2023/04/27 08:44:58;;;;;;;;;;;;;;;;;;;;;
2023/04/27 08:59:04;;;;;;;6.17;3.20;;;;;;;14.79;38.07;95700.28;4978964;23;20262;-83
2023/04/27 09:01:52;;;;;;;4.33;2.73;;;;;;;15.54;38.40;95686.59;4977793;28;20206;-82
2023/04/27 09:50:39;;;;;;;7.43;3.80;;;;;;;15.53;37.85;95692.81;5024113;23;20301;-83
2023/04/27 09:57:14;;;;;;;;;;;;;;;;;;;;;
2023/04/27 10:00:09;;;;;;;5.80;2.87;;;;;;;15.37;37.33;95695.53;4844728;29;20221;-85
2023/04/27 10:03:07;;;;;;;6.27;3.13;;;;;;;15.57;38.89;95694.94;4843707;29;20284;-84
2023/04/27 10:06:07;;;;;;;6.07;3.37;;;;;;;15.52;38.69;95696.44;4829850;29;20250;-85
2023/04/27 10:13:30;;;;;;;7.73;4.07;;;;;;;16.22;37.86;95695.41;4843719;29;20284;-84
2023/04/27 10:20:25;;;;;;;5.07;3.03;;;;;;;16.75;38.16;95690.94;4821737;29;20240;-85
2023/04/27 11:12:20;;;;;;;6.50;4.00;;;;;;;16.04;37.57;95682.63;5074387;23;20461;-83
2023/04/27 11:14:45;;;;;;;5.90;3.60;;;;;;;15.55;39.28;95678.59;4964399;28;20678;-82
2023/04/27 11:17:12;;;;;;;10.98;4.57;;;;;;;16.21;38.91;95683.28;4985715;28;20210;-83
2023/04/27 11:19:46;;;;;;;6.30;3.77;;;;;;;16.22;38.83;95684.91;4945317;28;20222;-85
2023/04/27 11:22:15;;;;;;;7.87;4.30;;;;;;;16.20;39.24;95689.53;4963755;28;20195;-83
2023/04/27 11:24:50;;;;;;;8.27;4.00;;;;;;;16.58;38.26;95690.25;4969181;28;20654;-84
2023/04/27 11:27:16;;;;;;;8.68;4.07;;;;;;;17.22;36.91;95698.34;4964976;28;20279;-85
2023/04/27 11:29:42;;;;;;;5.22;2.88;;;;;;;17.17;37.54;95692.84;4968903;28;20200;-83
2023/04/27 11:32:18;;;;;;;7.63;3.55;;;;;;;17.60;36.41;95703.41;4951494;28;20234;-84
2023/04/27 11:34:51;;;;;;;4.00;3.40;;;;;;;17.45;36.49;95692.94;4986834;28;20301;-82
2023/04/27 11:37:22;;;;;;;3.55;2.97;;;;;;;17.42;36.08;95690.72;4962824;28;20195;-84
2023/04/27 11:39:47;;;;;;;6.43;4.00;;;;;;;17.45;35.03;95687.69;4959155;28;20184;-84
2023/04/27 11:42:17;;;;;;;5.32;3.92;;;;;;;18.01;34.88;95683.38;4955336;28;20188;-84
2023/04/27 11:44:50;;;;;;;5.50;3.50;;;;;;;17.62;35.46;95678.59;4960528;28;20238;-83
2023/04/27 11:47:18;;;;;;;7.50;3.80;;;;;;;17.33;36.11;95674.25;4956994;28;20188;-83
2023/04/27 11:49:46;;;;;;;5.78;3.50;;;;;;;16.78;37.97;95680.06;4991889;28;20187;-83
2023/04/27 11:52:12;;;;;;;5.72;3.85;;;;;;;17.26;35.37;95674.19;4977167;28;20192;-82
2023/04/27 11:54:37;;;;;;;5.18;3.42;;;;;;;17.95;35.83;95675.47;4978206;28;20210;-83
2023/04/27 11:57:04;;;;;;;8.70;2.97;;;;;;;18.35;36.04;95672.09;4975849;28;20180;-82
2023/04/27 11:59:30;;;;;;;5.95;3.22;;;;;;;18.63;34.67;95663.34;4971428;28;20293;-83
2023/04/27 12:01:55;;;;;;;8.90;3.20;;;;;;;18.11;35.13;95670.75;4975835;28;20196;-82
2023/04/27 12:04:21;;;;;;;3.80;2.97;;;;;;;17.02;37.24;95666.66;4971442;28;20229;-81
2023/04/27 12:06:46;;;;;;;7.22;3.42;;;;;;;17.88;35.19;95666.72;4972518;28;20245;-83
2023/04/27 12:09:11;;;;;;;5.63;3.25;;;;;;;18.00;34.90;95668.63;4980102;28;20215;-83
2023/04/27 12:11:37;;;;;;;5.05;3.17;;;;;;;18.07;34.74;95656.34;4972049;28;20230;-83
2023/04/27 12:14:02;;;;;;;3.78;2.78;;;;;;;18.21;34.68;95659.91;4980682;28;21874;-82
2023/04/27 12:16:28;;;;;;;4.72;3.20;;;;;;;18.34;34.32;95667.84;4984803;28;20180;-84
2023/04/27 12:18:53;;;;;;;6.57;3.35;;;;;;;17.56;34.78;95658.31;4980083;28;20219;-83
2023/04/27 12:21:19;;;;;;;3.50;2.70;;;;;;;17.92;35.54;95658.25;4970448;28;20203;-83
2023/04/27 12:23:44;;;;;;;5.10;3.17;;;;;;;17.68;35.59;95656.81;4973110;28;20300;-83
2023/04/27 12:26:10;;;;;;;3.35;2.90;;;;;;;17.90;35.74;95654.19;4961640;28;20192;-81
2023/04/27 12:28:36;;;;;;;4.40;2.67;;;;;;;18.00;35.65;95655.50;4973037;28;20200;-83
2023/04/27 12:31:04;;;;;;;4.15;2.83;;;;;;;17.81;35.13;95661.41;4980285;28;20188;-82
2023/04/27 12:33:30;;;;;;;4.22;2.50;;;;;;;17.80;36.78;95660.59;4970663;28;20275;-82
2023/04/27 12:35:56;;;;;;;3.72;2.85;;;;;;;17.44;35.99;95658.00;4964492;28;20204;-82
2023/04/27 12:38:21;;;;;;;5.47;2.63;;;;;;;17.52;37.14;95651.84;4970582;28;20560;-81
2023/04/27 12:40:50;;;;;;;3.63;2.70;;;;;;;17.77;36.08;95650.47;4965675;28;20204;-83
2023/04/27 12:43:15;;;;;;;5.43;2.53;;;;;;;17.70;36.32;95648.78;4965973;28;20175;-81
2023/04/27 12:45:40;;;;;;;4.35;2.88;;;;;;;17.52;35.37;95646.59;4991394;28;20199;-85
2023/04/27 12:48:06;;;;;;;5.15;2.78;;;;;;;17.57;35.77;95652.06;4954460;28;20212;-84
2023/04/27 12:50:31;;;;;;;4.00;2.63;;;;;;;18.00;36.11;95650.22;4956425;28;20196;-84
2023/04/27 12:52:57;;;;;;;3.35;2.50;;;;;;;17.66;35.46;95647.50;4974628;28;20187;-84
2023/04/27 12:55:22;;;;;;;5.60;2.50;;;;;;;18.25;35.61;95645.34;4957565;28;20198;-84
2023/04/27 12:57:47;;;;;;;3.70;2.80;;;;;;;18.33;34.51;95644.41;4958860;28;20294;-85
2023/04/27 13:00:13;;;;;;;3.42;2.83;;;;;;;18.07;34.65;95640.59;4955453;28;20219;-85
2023/04/27 13:02:38;;;;;;;4.07;2.50;;;;;;;18.37;34.32;95645.63;4953436;28;20261;-85
2023/04/27 13:05:06;;;;;;;3.55;2.55;;;;;;;18.54;34.74;95646.94;4955818;28;20188;-86
2023/04/27 13:07:32;;;;;;;4.30;2.90;;;;;;;18.38;34.74;95648.09;4976877;28;20642;-85
2023/04/27 13:09:57;;;;;;;3.53;2.60;;;;;;;18.15;35.32;95647.50;4956937;28;20195;-83
2023/04/27 13:12:23;;;;;;;3.95;3.20;;;;;;;17.02;36.35;95644.84;4970375;28;20196;-84
2023/04/27 13:14:48;;;;;;;4.80;2.92;;;;;;;16.79;36.94;95648.44;4968654;28;20183;-85
2023/04/27 13:17:13;;;;;;;3.92;2.80;;;;;;;17.10;36.58;95648.16;4956281;28;20955;-85
2023/04/27 13:19:39;;;;;;;3.50;2.85;;;;;;;17.72;37.35;95647.59;4954894;28;20779;-85
2023/04/27 13:22:05;;;;;;;3.03;2.65;;;;;;;17.97;35.54;95639.31;4952017;28;20216;-86
2023/04/27 13:24:30;;;;;;;4.60;2.70;;;;;;;17.45;36.47;95640.44;4983930;28;20185;-85
2023/04/27 13:26:55;;;;;;;3.85;2.67;;;;;;;16.92;37.62;95640.72;4955869;28;20676;-86
2023/04/27 13:29:23;;;;;;;4.18;2.75;;;;;;;17.56;36.61;95639.94;4953710;28;20218;-86
2023/04/27 13:31:48;;;;;;;3.85;2.63;;;;;;;17.98;35.73;95630.41;4968401;28;20183;-85
2023/04/27 13:34:13;;;;;;;5.28;3.17;;;;;;;17.54;36.11;95637.50;4969919;28;20180;-85
2023/04/27 13:37:37;;;;;;;4.05;2.80;;;;;;;17.48;36.28;95633.00;4952978;28;20211;-84
2023/04/27 13:40:15;;;;;;;5.38;2.97;;;;;;;17.65;36.46;95620.41;4965795;28;20290;-83
2023/04/27 13:43:24;;;;;;;;;;;;;;;;;;;;;
2023/04/27 14:06:53;;;;;;;5.65;2.38;;;;;;;19.19;34.68;95621.13;4782355;30;20316;-87
2023/04/27 14:09:19;;;;;;;3.85;2.38;;;;;;;18.77;35.27;95622.19;4796384;29;20253;-83
2023/04/27 14:11:45;;;;;;;3.63;2.88;;;;;;;18.19;36.27;95632.97;4764572;30;20258;-83
2023/04/27 14:14:10;;;;;;;3.35;2.97;;;;;;;18.42;34.55;95634.53;4765555;30;20211;-83
2023/04/27 14:16:36;;;;;;;4.57;2.75;;;;;;;18.13;35.42;95631.13;4774305;29;20219;-83
2023/04/27 14:19:01;;;;;;;5.00;2.90;;;;;;;18.04;34.88;95640.97;4774787;30;20233;-83
2023/04/27 14:21:26;;;;;;;3.55;2.38;;;;;;;17.79;34.82;95640.59;4758780;30;20205;-83
2023/04/27 14:23:52;;;;;;;2.40;2.20;;;;;;;17.83;35.61;95635.75;4769299;30;20224;-83
2023/04/27 14:26:17;;;;;;;4.95;2.55;;;;;;;17.83;36.33;95633.94;4788251;29;20854;-82
2023/04/27 14:28:42;;;;;;;4.15;2.83;;;;;;;17.62;36.82;95635.75;4780760;30;20211;-83
2023/04/27 14:31:08;;;;;;;4.22;2.38;;;;;;;17.38;37.21;95635.13;4787444;29;20215;-82
2023/04/27 14:33:33;;;;;;;3.08;2.50;;;;;;;16.99;36.76;95638.16;4880002;29;20205;-82
2023/04/27 14:35:58;;;;;;;4.80;2.28;;;;;;;17.16;37.49;95631.69;4887656;29;20235;-82
2023/04/27 14:38:23;;;;;;;5.20;2.25;;;;;;;17.63;36.63;95638.19;4925820;28;20274;-83
2023/04/27 14:40:49;;;;;;;3.78;2.53;;;;;;;17.61;36.86;95623.63;4992507;28;20217;-83
2023/04/27 14:43:15;;;;;;;5.72;2.55;;;;;;;17.41;36.30;95629.53;4960437;28;20709;-83
2023/04/27 14:45:41;;;;;;;3.42;2.42;;;;;;;18.06;35.26;95631.09;4967358;28;20192;-83
2023/04/27 14:48:06;;;;;;;3.67;2.60;;;;;;;17.87;36.47;95631.75;4953776;28;20204;-83
2023/04/27 14:50:31;;;;;;;3.72;2.63;;;;;;;17.84;35.65;95632.13;4952854;28;20184;-83
2023/04/27 14:56:21;;;;;;;4.35;2.25;;;;;;;17.93;37.54;95638.03;4915287;29;20201;-82
2023/04/27 15:12:41;;;;;;;3.28;2.10;;;;;;;17.44;37.32;95633.56;4860116;29;20356;-83
2023/04/27 15:15:18;;;;;;;3.22;2.00;;;;;;;17.30;36.92;95637.06;4832929;29;20323;-87
2023/04/27 15:21:15;;;;;;;2.50;2.30;;;;;;;17.95;36.69;95629.00;4808811;29;20721;-87
2023/04/27 15:23:40;;;;;;;4.22;2.50;;;;;;;17.97;36.01;95628.78;4781936;29;20183;-87
2023/04/27 15:26:05;;;;;;;3.47;2.38;;;;;;;17.39;36.49;95623.63;4816745;29;20214;-86
2023/04/27 15:28:32;;;;;;;3.15;2.10;;;;;;;17.49;36.69;95621.53;4805954;29;20731;-86
2023/04/27 15:30:58;;;;;;;3.97;2.45;;;;;;;17.46;36.08;95621.88;4801385;29;20289;-87
2023/04/27 15:33:24;;;;;;;6.88;2.75;;;;;;;16.93;37.96;95617.91;4810434;29;20229;-85
2023/04/27 15:35:52;;;;;;;3.92;2.20;;;;;;;17.11;37.49;95623.56;4812055;29;20197;-87
2023/04/27 15:38:19;;;;;;;2.95;2.20;;;;;;;17.81;37.73;95614.94;4822095;29;20283;-86
2023/04/27 15:40:44;;;;;;;6.82;3.38;;;;;;;17.87;37.50;95613.38;4841805;29;20220;-82
2023/04/27 15:43:48;;;;;;;;;;;;;;;;;;;;;
2023/04/27 15:47:02;;;;;;;4.07;2.65;;;;;;;17.52;38.78;95615.06;4919193;29;20691;-85
2023/04/27 15:50:44;;;;;;;;;;;;;;;;;;;;;
2023/04/27 16:00:53;;;;;;;;;;;;;;;;;;;;;
2023/04/27 16:06:52;;;;;;;4.72;2.30;;;;;;;18.01;37.68;95591.41;4874853;29;20351;-85
2023/04/27 16:09:18;;;;;;;3.72;2.00;;;;;;;18.38;36.64;95592.06;4862106;29;20714;-81
2023/04/27 16:11:44;;;;;;;3.10;2.28;;;;;;;18.10;37.25;95592.09;4830259;29;20224;-82
2023/04/27 16:14:09;;;;;;;3.58;1.85;;;;;;;18.54;37.68;95578.56;4833163;29;20261;-83
2023/04/27 16:16:35;;;;;;;5.82;2.50;;;;;;;18.56;38.34;95575.75;4828370;29;20196;-82
2023/04/27 16:19:00;;;;;;;3.13;2.20;;;;;;;18.65;37.39;95572.78;4838725;29;20220;-82
2023/04/27 16:21:26;;;;;;;5.60;2.38;;;;;;;18.49;37.13;95575.72;4859365;29;20301;-82
2023/04/27 16:23:52;;;;;;;3.72;1.98;;;;;;;18.07;36.26;95571.44;4872171;29;20202;-82
2023/04/27 16:26:18;;;;;;;3.97;1.92;;;;;;;17.88;35.97;95572.97;4873530;29;20270;-82
2023/04/27 16:28:43;;;;;;;2.85;2.40;;;;;;;18.15;36.01;95579.19;4878676;29;20203;-82
2023/04/27 16:31:08;;;;;;;3.58;1.92;;;;;;;17.50;36.80;95580.31;4877983;29;20216;-83
2023/04/27 16:33:33;;;;;;;2.45;2.00;;;;;;;18.13;35.71;95578.56;4870155;29;20277;-82
2023/04/27 16:35:59;;;;;;;2.05;1.60;;;;;;;18.48;36.10;95563.59;4894564;29;20209;-86
2023/04/27 17:01:38;;;;;;;4.25;2.25;;;;;;;17.89;36.89;95558.00;4997133;28;20274;-84
2023/04/27 17:21:11;;;;;;;2.08;1.75;;;;;;;17.03;40.38;95562.50;5102944;23;20242;-84
2023/04/27 17:23:45;;;;;;;3.10;1.88;;;;;;;16.86;39.83;95557.50;4983280;28;20203;-83
2023/04/27 17:26:26;;;;;;;7.50;2.60;;;;;;;16.87;41.26;95553.06;4992177;28;20980;-84
2023/04/27 17:36:07;;;;;;;3.88;2.20;;;;;;;16.32;41.22;95554.44;4891370;29;20558;-82
2023/04/27 17:38:32;;;;;;;5.85;2.38;;;;;;;16.24;41.31;95557.97;4870407;29;20304;-82
2023/04/27 17:40:57;;;;;;;2.45;1.90;;;;;;;16.27;41.17;95562.06;4887755;29;20813;-82
2023/04/27 17:43:23;;;;;;;2.88;1.88;;;;;;;16.03;42.71;95571.00;4889549;29;20202;-83
2023/04/27 17:45:48;;;;;;;2.75;1.88;;;;;;;15.97;43.14;95561.22;4895153;29;20569;-83
2023/04/27 17:48:14;;;;;;;3.50;1.88;;;;;;;15.82;43.53;95558.63;4878879;29;20260;-83
2023/04/27 17:50:39;;;;;;;2.92;2.10;;;;;;;15.91;42.31;95549.69;4866255;29;20195;-84
2023/04/27 17:53:05;;;;;;;4.32;2.22;;;;;;;15.80;42.79;95561.41;4888658;29;20286;-84